createdAt,value
2022-11-18T00:02:05.945Z,59.20
2022-11-18T00:04:32.573Z,59.30
2022-11-18T00:07:00.132Z,59.30
2022-11-18T00:09:26.720Z,59.30
2022-11-18T00:11:53.261Z,59.20
2022-11-18T00:14:19.857Z,59.30
2022-11-18T00:16:46.962Z,59.30
2022-11-18T00:19:13.476Z,59.20
2022-11-18T00:21:40.047Z,59.30
2022-11-18T00:24:06.597Z,59.20
2022-11-18T00:26:33.149Z,59.30
2022-11-18T00:28:59.638Z,59.20
2022-11-18T00:31:29.911Z,59.20
2022-11-18T00:33:59.990Z,59.20
2022-11-18T00:36:26.528Z,59.20
2022-11-18T00:38:53.097Z,59.30
2022-11-18T00:41:22.646Z,59.40
2022-11-18T00:43:49.223Z,59.30
2022-11-18T00:46:15.884Z,59.30
2022-11-18T00:48:48.298Z,59.30
2022-11-18T00:51:14.867Z,59.20
2022-11-18T00:53:41.363Z,59.20
2022-11-18T00:56:07.969Z,59.30
2022-11-18T00:58:34.539Z,59.30
2022-11-18T01:01:01.126Z,59.30
2022-11-18T01:03:27.697Z,59.20
2022-11-18T01:05:56.505Z,59.20
2022-11-18T01:08:24.703Z,59.30
2022-11-18T01:10:51.195Z,59.20
2022-11-18T01:13:17.743Z,59.20
2022-11-18T01:15:44.250Z,59.30
2022-11-18T01:18:10.740Z,59.20
2022-11-18T01:20:42.041Z,59.30
2022-11-18T01:23:08.587Z,59.30
2022-11-18T01:25:42.084Z,59.30
2022-11-18T01:28:08.609Z,59.30
2022-11-18T01:30:35.138Z,59.30
2022-11-18T01:33:01.637Z,59.30
2022-11-18T01:35:28.167Z,59.30
2022-11-18T01:37:54.692Z,59.30
2022-11-18T01:40:21.222Z,59.30
2022-11-18T01:42:47.744Z,59.30
2022-11-18T01:45:14.263Z,59.30
2022-11-18T01:47:40.817Z,59.30
2022-11-18T01:50:10.344Z,59.20
2022-11-18T01:52:36.886Z,59.20
2022-11-18T01:55:03.397Z,59.30
2022-11-18T01:57:33.056Z,59.30
2022-11-18T01:59:59.564Z,59.20
2022-11-18T02:02:26.108Z,59.20
2022-11-18T02:04:52.623Z,59.30
2022-11-18T02:07:19.183Z,59.30
2022-11-18T02:09:48.010Z,59.10
2022-11-18T02:12:14.571Z,59.10
2022-11-18T02:14:41.115Z,59.10
2022-11-18T02:17:07.703Z,59.10
2022-11-18T02:19:36.035Z,59.10
2022-11-18T02:22:02.611Z,59.30
2022-11-18T02:24:29.133Z,59.40
2022-11-18T02:26:55.676Z,59.40
2022-11-18T02:29:22.323Z,59.40
2022-11-18T02:31:48.861Z,59.30
2022-11-18T02:34:15.391Z,59.20
2022-11-18T02:36:41.914Z,59.20
2022-11-18T02:39:08.436Z,59.20
2022-11-18T02:41:34.962Z,59.20
2022-11-18T02:44:01.474Z,59.30
2022-11-18T02:46:28.014Z,59.20
2022-11-18T02:48:54.554Z,59.40
2022-11-18T02:51:21.073Z,59.20
2022-11-18T02:53:52.413Z,59.30
2022-11-18T02:56:24.147Z,59.30
2022-11-18T02:58:50.667Z,59.30
2022-11-18T03:01:20.312Z,59.30
2022-11-18T03:03:46.908Z,59.30
2022-11-18T03:06:18.169Z,59.30
2022-11-18T03:08:44.680Z,59.40
2022-11-18T03:11:11.236Z,59.40
2022-11-18T03:13:37.813Z,59.40
2022-11-18T03:16:04.324Z,59.30
2022-11-18T03:18:30.833Z,59.40
2022-11-18T03:20:57.329Z,59.30
2022-11-18T03:23:23.876Z,59.30
2022-11-18T03:25:50.364Z,59.30
2022-11-18T03:28:18.056Z,59.30
2022-11-18T03:30:44.653Z,59.30
2022-11-18T03:33:14.272Z,59.40
2022-11-18T03:35:40.826Z,59.30
2022-11-18T03:38:12.081Z,59.60
2022-11-18T03:40:38.672Z,59.40
2022-11-18T03:43:05.189Z,59.40
2022-11-18T03:45:31.697Z,59.30
2022-11-18T03:47:58.219Z,59.30
2022-11-18T03:53:05.070Z,59.40
2022-11-18T03:55:31.558Z,59.30
2022-11-18T03:57:58.037Z,59.40
2022-11-18T04:00:24.554Z,59.40
2022-11-18T04:02:51.045Z,59.30
2022-11-18T04:05:17.548Z,59.30
2022-11-18T04:07:44.100Z,59.30
2022-11-18T04:10:10.722Z,59.30
2022-11-18T04:12:37.230Z,59.30
2022-11-18T04:15:03.791Z,59.30
2022-11-18T04:17:30.300Z,59.40
2022-11-18T04:19:56.992Z,59.30
2022-11-18T04:22:26.588Z,59.30
2022-11-18T04:24:53.086Z,59.30
2022-11-18T04:27:19.590Z,59.30
2022-11-18T04:29:46.122Z,59.40
2022-11-18T04:32:12.656Z,59.20
2022-11-18T04:34:39.147Z,59.30
2022-11-18T04:37:05.650Z,59.30
2022-11-18T04:39:34.820Z,59.40
2022-11-18T04:42:01.316Z,59.40
2022-11-18T04:44:27.994Z,59.50
2022-11-18T04:46:54.524Z,59.50
2022-11-18T04:49:21.072Z,59.40
2022-11-18T04:51:47.590Z,59.40
2022-11-18T04:54:14.155Z,59.40
2022-11-18T04:56:45.662Z,59.50
2022-11-18T04:59:15.461Z,59.50
2022-11-18T05:01:42.320Z,59.50
2022-11-18T05:04:12.301Z,59.50
2022-11-18T05:06:42.148Z,59.50
2022-11-18T05:09:11.698Z,59.50
2022-11-18T05:14:30.189Z,59.50
2022-11-18T05:16:56.731Z,59.40
2022-11-18T05:19:23.297Z,59.50
2022-11-18T05:21:49.821Z,59.40
2022-11-18T05:24:16.393Z,59.40
2022-11-18T05:26:42.914Z,59.50
2022-11-18T05:29:09.459Z,59.60
2022-11-18T05:31:36.745Z,59.60
2022-11-18T05:34:03.288Z,59.50
2022-11-18T05:36:29.762Z,59.50
2022-11-18T05:38:56.293Z,59.40
2022-11-18T05:41:22.895Z,59.50
2022-11-18T05:43:49.402Z,60.20
2022-11-18T05:46:16.038Z,59.50
2022-11-18T05:48:42.610Z,59.40
2022-11-18T05:51:12.139Z,59.40
2022-11-18T05:53:38.678Z,59.40
2022-11-18T05:56:05.269Z,59.40
2022-11-18T05:58:31.804Z,59.40
2022-11-18T06:00:58.381Z,59.50
2022-11-18T06:03:30.233Z,59.50
2022-11-18T06:05:57.448Z,59.50
2022-11-18T06:08:23.991Z,59.60
2022-11-18T06:10:50.562Z,59.40
2022-11-18T06:13:18.249Z,59.50
2022-11-18T06:15:44.760Z,59.50
2022-11-18T06:18:13.149Z,59.40
2022-11-18T06:20:39.697Z,59.50
2022-11-18T06:23:06.217Z,59.40
2022-11-18T06:25:32.761Z,59.50
2022-11-18T06:27:59.303Z,59.50
2022-11-18T06:30:25.881Z,59.50
2022-11-18T06:32:52.398Z,59.40
2022-11-18T06:35:24.227Z,59.40
2022-11-18T06:37:50.756Z,59.40
2022-11-18T06:40:17.305Z,59.50
2022-11-18T06:42:43.827Z,59.60
2022-11-18T06:45:10.406Z,59.60
2022-11-18T06:47:37.015Z,59.60
2022-11-18T06:50:06.777Z,59.60
2022-11-18T06:52:33.286Z,59.60
2022-11-18T06:54:59.759Z,59.60
2022-11-18T06:57:26.258Z,59.70
2022-11-18T06:59:55.438Z,59.70
2022-11-18T07:02:24.281Z,59.70
2022-11-18T07:04:50.826Z,59.80
2022-11-18T07:07:17.496Z,59.80
2022-11-18T07:09:44.135Z,59.70
2022-11-18T07:12:12.409Z,59.70
2022-11-18T07:14:38.934Z,59.80
2022-11-18T07:17:05.424Z,59.80
2022-11-18T07:19:35.755Z,59.90
2022-11-18T07:22:02.652Z,59.90
2022-11-18T07:24:29.218Z,60.10
2022-11-18T07:26:55.739Z,60.10
2022-11-18T07:29:22.260Z,60.00
2022-11-18T07:31:48.742Z,59.90
2022-11-18T07:34:15.245Z,59.90
2022-11-18T07:36:41.721Z,59.80
2022-11-18T07:39:08.219Z,59.90
2022-11-18T07:41:34.753Z,59.80
2022-11-18T07:44:01.520Z,59.80
2022-11-18T07:46:28.141Z,60.70
2022-11-18T07:48:54.666Z,60.00
2022-11-18T07:51:21.225Z,60.10
2022-11-18T07:53:47.722Z,60.10
2022-11-18T07:56:14.223Z,59.90
2022-11-18T07:58:40.749Z,60.00
2022-11-18T08:01:07.404Z,59.90
2022-11-18T08:03:33.954Z,60.00
2022-11-18T08:06:06.304Z,59.90
2022-11-18T08:08:32.901Z,60.10
2022-11-18T08:10:59.439Z,59.90
2022-11-18T08:13:32.806Z,60.00
2022-11-18T08:15:59.305Z,59.90
2022-11-18T08:18:25.796Z,60.10
2022-11-18T08:20:52.322Z,60.10
2022-11-18T08:23:18.857Z,60.10
2022-11-18T08:25:45.491Z,60.20
2022-11-18T08:28:12.122Z,60.00
2022-11-18T08:30:38.652Z,60.10
2022-11-18T08:33:05.188Z,60.30
2022-11-18T08:35:31.741Z,60.30
2022-11-18T08:37:58.333Z,60.30
2022-11-18T08:40:24.892Z,60.20
2022-11-18T08:42:51.591Z,60.30
2022-11-18T08:45:21.185Z,60.20
2022-11-18T08:47:47.957Z,60.30
2022-11-18T08:50:14.472Z,60.30
2022-11-18T08:52:41.079Z,60.30
2022-11-18T08:55:07.596Z,60.30
2022-11-18T08:57:34.199Z,60.40
2022-11-18T09:00:00.761Z,60.50
2022-11-18T09:02:27.326Z,60.40
2022-11-18T09:04:53.798Z,60.30
2022-11-18T09:07:20.465Z,60.40
2022-11-18T09:09:48.367Z,60.40
2022-11-18T09:12:15.074Z,60.30
2022-11-18T09:20:08.460Z,60.60
2022-11-18T09:22:34.938Z,60.60
2022-11-18T09:25:01.511Z,60.50
2022-11-18T09:27:28.105Z,60.60
2022-11-18T09:29:54.677Z,60.60
2022-11-18T09:32:21.211Z,60.50
2022-11-18T09:34:47.854Z,60.50
2022-11-18T09:37:14.427Z,60.70
2022-11-18T09:39:40.913Z,60.60
2022-11-18T09:42:07.433Z,60.40
2022-11-18T09:44:33.977Z,60.60
2022-11-18T09:47:00.521Z,60.50
2022-11-18T09:49:27.050Z,60.50
2022-11-18T09:51:54.335Z,60.50
2022-11-18T09:54:21.036Z,60.50
2022-11-18T09:56:47.608Z,60.50
2022-11-18T09:59:18.356Z,60.60
2022-11-18T10:01:44.944Z,60.60
2022-11-18T10:04:11.610Z,60.40
2022-11-18T10:06:38.136Z,60.60
2022-11-18T10:09:04.661Z,60.50
2022-11-18T10:11:31.207Z,60.70
2022-11-18T10:13:57.758Z,60.70
2022-11-18T10:16:24.323Z,60.60
2022-11-18T10:19:00.362Z,60.60
2022-11-18T10:21:34.883Z,60.80
2022-11-18T10:24:01.498Z,60.70
2022-11-18T10:26:27.997Z,60.80
2022-11-18T10:29:00.382Z,60.70
2022-11-18T10:31:26.905Z,60.90
2022-11-18T10:33:53.446Z,60.90
2022-11-18T10:36:19.948Z,60.80
2022-11-18T10:38:49.938Z,60.70
2022-11-18T10:41:16.894Z,60.80
2022-11-18T10:43:48.466Z,60.90
2022-11-18T10:46:14.966Z,60.70
2022-11-18T10:48:41.476Z,60.60
2022-11-18T10:51:07.969Z,60.70
2022-11-18T10:53:34.499Z,60.70
2022-11-18T10:56:03.236Z,60.90
2022-11-18T10:58:36.668Z,60.80
2022-11-18T11:01:03.226Z,60.90
2022-11-18T11:03:29.820Z,60.80
2022-11-18T11:05:56.357Z,60.90
2022-11-18T11:08:39.563Z,60.70
2022-11-18T11:11:06.103Z,60.70
2022-11-18T11:13:35.661Z,60.90
2022-11-18T11:18:52.280Z,60.80
2022-11-18T11:21:18.815Z,60.50
2022-11-18T11:23:45.296Z,60.70
2022-11-18T11:31:42.446Z,60.90
2022-11-18T11:34:08.947Z,60.80
2022-11-18T11:36:35.418Z,60.90
2022-11-18T11:39:04.858Z,60.80
2022-11-18T11:41:31.634Z,60.70
2022-11-18T11:43:58.135Z,60.70
2022-11-18T11:46:30.506Z,60.60
2022-11-18T11:48:57.026Z,60.70
2022-11-18T11:51:25.713Z,60.80
2022-11-18T11:53:52.259Z,60.70
2022-11-18T11:56:22.580Z,60.50
2022-11-18T11:58:51.852Z,60.70
2022-11-18T12:01:18.362Z,60.90
2022-11-18T12:03:51.892Z,60.70
2022-11-18T12:06:24.567Z,60.90
2022-11-18T12:08:53.900Z,60.80
2022-11-18T12:11:24.484Z,60.90
2022-11-18T12:14:00.731Z,60.90
2022-11-18T12:16:27.446Z,60.90
2022-11-18T12:18:58.709Z,60.80
2022-11-18T12:21:25.740Z,60.90
2022-11-18T12:23:52.253Z,60.90
2022-11-18T12:26:24.493Z,60.90
2022-11-18T12:28:54.244Z,60.70
2022-11-18T12:31:20.854Z,60.90
2022-11-18T12:33:47.403Z,61.00
2022-11-18T12:36:13.924Z,60.80
2022-11-18T12:38:40.511Z,60.90
2022-11-18T12:41:12.619Z,61.00
2022-11-18T12:43:39.148Z,61.00
2022-11-18T12:46:06.542Z,60.90
2022-11-18T12:48:33.077Z,60.80
2022-11-18T12:50:59.721Z,60.50
2022-11-18T12:53:26.251Z,60.80
2022-11-18T12:55:52.754Z,60.60
2022-11-18T12:58:27.470Z,60.70
2022-11-18T13:00:54.021Z,60.60
2022-11-18T13:03:20.579Z,60.60
2022-11-18T13:05:47.159Z,60.50
2022-11-18T13:08:13.712Z,60.70
2022-11-18T13:10:40.293Z,60.90
2022-11-18T13:13:06.837Z,60.70
2022-11-18T13:15:33.407Z,60.80
2022-11-18T13:17:59.882Z,60.50
2022-11-18T13:20:26.481Z,60.70
2022-11-18T13:22:52.983Z,60.50
2022-11-18T13:25:19.474Z,60.70
2022-11-18T13:27:46.032Z,60.70
2022-11-18T13:30:12.580Z,60.50
2022-11-18T13:32:39.114Z,60.40
2022-11-18T13:35:05.656Z,60.60
2022-11-18T13:37:33.339Z,60.60
2022-11-18T13:39:59.839Z,60.70
2022-11-18T13:42:26.415Z,60.50
2022-11-18T13:44:52.923Z,60.50
2022-11-18T13:47:19.453Z,60.40
2022-11-18T13:49:50.083Z,60.30
2022-11-18T13:52:17.298Z,60.30
2022-11-18T13:54:43.813Z,60.80
2022-11-18T13:57:10.938Z,60.80
2022-11-18T13:59:37.480Z,60.70
2022-11-18T14:02:06.418Z,60.50
2022-11-18T14:04:32.949Z,60.50
2022-11-18T14:06:59.565Z,60.60
2022-11-18T14:09:26.096Z,60.40
2022-11-18T14:11:52.692Z,60.80
2022-11-18T14:14:27.257Z,60.50
2022-11-18T14:16:53.976Z,60.70
2022-11-18T14:19:20.553Z,60.70
2022-11-18T14:21:53.547Z,60.70
2022-11-18T14:24:24.742Z,60.70
2022-11-18T14:26:51.479Z,60.50
2022-11-18T14:29:21.539Z,60.70
2022-11-18T14:31:48.152Z,60.40
2022-11-18T14:34:14.740Z,60.70
2022-11-18T14:36:45.432Z,60.50
2022-11-18T14:39:26.025Z,60.50
2022-11-18T14:41:53.453Z,60.40
2022-11-18T14:44:20.044Z,60.50
2022-11-18T14:46:46.663Z,60.50
2022-11-18T14:49:19.180Z,60.70
2022-11-18T14:51:45.957Z,60.40
2022-11-18T14:54:18.258Z,60.40
2022-11-18T14:56:48.772Z,60.70
2022-11-18T14:59:18.795Z,60.40
2022-11-18T15:01:45.443Z,60.40
2022-11-18T15:04:12.058Z,60.40
2022-11-18T15:06:38.574Z,60.40
2022-11-18T15:09:05.133Z,60.40
2022-11-18T15:11:31.668Z,60.50
2022-11-18T15:14:00.636Z,60.40
2022-11-18T15:16:27.218Z,60.30
2022-11-18T15:18:53.781Z,60.30
2022-11-18T15:21:20.313Z,60.20
2022-11-18T15:23:46.845Z,60.40
2022-11-18T15:26:13.393Z,60.50
2022-11-18T15:28:39.904Z,60.30
2022-11-18T15:31:06.415Z,60.30
2022-11-18T15:33:32.936Z,60.30
2022-11-18T15:35:59.476Z,60.30
2022-11-18T15:38:26.041Z,60.30
2022-11-18T15:40:52.569Z,60.40
2022-11-18T15:46:09.302Z,60.30
2022-11-18T15:48:35.830Z,60.30
2022-11-18T15:51:04.417Z,60.40
2022-11-18T15:53:35.220Z,60.30
2022-11-18T15:56:01.831Z,60.40
2022-11-18T15:58:33.025Z,60.50
2022-11-18T16:01:02.380Z,61.30
2022-11-18T16:03:28.913Z,60.40
2022-11-18T16:05:55.435Z,60.30
2022-11-18T16:08:21.997Z,60.30
2022-11-18T16:10:48.594Z,60.30
2022-11-18T16:13:15.208Z,60.30
2022-11-18T16:15:41.751Z,60.10
2022-11-18T16:18:08.429Z,60.30
2022-11-18T16:20:35.045Z,60.20
2022-11-18T16:23:01.558Z,60.10
2022-11-18T16:25:28.141Z,60.00
2022-11-18T16:27:54.649Z,60.10
2022-11-18T16:30:21.223Z,60.10
2022-11-18T16:32:47.750Z,60.00
2022-11-18T16:35:14.317Z,60.10
2022-11-18T16:37:42.924Z,60.10
2022-11-18T16:40:13.932Z,60.10
2022-11-18T16:48:11.160Z,59.90
2022-11-18T16:53:28.182Z,60.20
2022-11-18T16:58:46.026Z,60.10
2022-11-18T17:01:23.279Z,60.20
2022-11-18T17:03:51.376Z,60.10
2022-11-18T17:26:18.923Z,59.80
2022-11-18T17:28:49.037Z,59.80
2022-11-18T17:31:18.847Z,59.90
2022-11-18T17:33:45.363Z,59.80
2022-11-18T17:36:12.270Z,59.80
2022-11-18T17:38:39.078Z,59.70
2022-11-18T17:43:56.313Z,59.70
2022-11-18T17:46:24.810Z,59.70
2022-11-18T17:48:54.396Z,59.70
2022-11-18T17:51:20.993Z,59.70
2022-11-18T17:53:47.509Z,59.70
2022-11-18T17:56:18.823Z,59.70
2022-11-18T17:58:45.415Z,59.60
2022-11-18T18:01:12.037Z,59.70
2022-11-18T18:03:38.565Z,59.60
2022-11-18T18:06:05.102Z,59.60
2022-11-18T18:08:31.704Z,59.60
2022-11-18T18:10:58.270Z,59.60
2022-11-18T18:13:24.795Z,59.60
2022-11-18T18:15:51.337Z,59.60
2022-11-18T18:18:17.879Z,59.60
2022-11-18T18:20:45.072Z,59.60
2022-11-18T18:23:11.557Z,59.60
2022-11-18T18:25:38.129Z,59.60
2022-11-18T18:28:06.782Z,59.60
2022-11-18T18:30:33.300Z,59.70
2022-11-18T18:32:59.867Z,59.70
2022-11-18T18:35:26.408Z,59.70
2022-11-18T18:37:55.027Z,59.70
2022-11-18T18:40:21.599Z,59.80
2022-11-18T18:42:48.788Z,59.70
2022-11-18T18:45:15.284Z,59.70
2022-11-18T18:47:41.804Z,59.60
2022-11-18T18:50:08.349Z,59.60
2022-11-18T18:52:34.900Z,59.60
2022-11-18T18:55:01.429Z,59.70
2022-11-18T18:57:27.941Z,59.80
2022-11-18T18:59:54.413Z,59.90
2022-11-18T19:02:20.913Z,59.80
2022-11-18T19:04:47.436Z,59.90
2022-11-18T19:07:14.058Z,59.70
2022-11-18T19:09:43.659Z,59.70
2022-11-18T19:12:10.334Z,59.60
2022-11-18T19:14:36.949Z,59.70
2022-11-18T19:19:49.960Z,59.50
2022-11-18T19:22:16.489Z,59.40
2022-11-18T19:24:49.615Z,59.40
2022-11-18T19:27:16.566Z,59.50
2022-11-18T19:29:43.110Z,59.40
2022-11-18T19:32:09.701Z,59.40
2022-11-18T19:34:36.862Z,59.40
2022-11-18T19:37:03.387Z,59.30
2022-11-18T19:39:29.914Z,59.20
2022-11-18T19:41:56.432Z,59.30
2022-11-18T19:44:22.965Z,59.20
2022-11-18T19:46:54.825Z,59.20
2022-11-18T19:49:21.800Z,59.20
2022-11-18T19:51:48.630Z,59.30
2022-11-18T19:54:15.241Z,59.40
2022-11-18T19:56:41.764Z,59.30
2022-11-18T19:59:08.303Z,59.30
2022-11-18T20:01:35.009Z,59.30
2022-11-18T20:04:01.661Z,59.30
2022-11-18T20:06:28.202Z,59.10
2022-11-18T20:08:54.724Z,59.10
2022-11-18T20:11:21.291Z,59.10
2022-11-18T20:13:47.821Z,59.70
2022-11-18T20:16:19.205Z,59.10
2022-11-18T20:18:45.712Z,59.10
2022-11-18T20:21:12.247Z,59.00
2022-11-18T20:23:41.889Z,58.90
2022-11-18T20:26:08.394Z,58.90
2022-11-18T20:28:34.882Z,59.00
2022-11-18T20:31:01.416Z,58.90
2022-11-18T20:33:29.955Z,58.90
2022-11-18T20:35:56.612Z,58.70
2022-11-18T20:38:25.000Z,58.70
2022-11-18T20:40:51.541Z,58.90
2022-11-18T20:43:18.059Z,58.80
2022-11-18T20:45:44.703Z,58.60
2022-11-18T20:48:11.255Z,58.50
2022-11-18T20:50:37.765Z,58.80
2022-11-18T20:53:04.386Z,58.80
2022-11-18T20:55:30.941Z,58.70
2022-11-18T20:57:57.450Z,58.60
2022-11-18T21:00:24.046Z,58.70
2022-11-18T21:02:50.577Z,58.40
2022-11-18T21:05:23.032Z,58.40
2022-11-18T21:07:49.565Z,58.30
2022-11-18T21:10:16.084Z,58.50
2022-11-18T21:12:42.651Z,58.60
2022-11-18T21:15:09.171Z,58.50
2022-11-18T21:17:35.721Z,58.40
2022-11-18T21:20:02.264Z,58.20
2022-11-18T21:22:28.757Z,58.30
2022-11-18T21:24:55.292Z,58.20
2022-11-18T21:27:21.799Z,58.00
2022-11-18T21:29:48.329Z,58.20
2022-11-18T21:32:14.834Z,57.90
2022-11-18T21:34:41.425Z,58.00
2022-11-18T21:37:07.904Z,57.90
2022-11-18T21:39:34.450Z,57.90
2022-11-18T21:42:00.941Z,57.90
2022-11-18T21:44:27.520Z,58.00
2022-11-18T21:46:54.065Z,57.80
2022-11-18T21:49:20.952Z,58.00
2022-11-18T21:51:47.915Z,57.80
2022-11-18T21:54:14.509Z,57.60
2022-11-18T21:56:41.028Z,57.60
2022-11-18T21:59:07.661Z,57.70
2022-11-18T22:01:36.922Z,57.70
2022-11-18T22:04:03.494Z,57.50
2022-11-18T22:06:30.961Z,57.40
2022-11-18T22:08:57.530Z,57.30
2022-11-18T22:11:26.194Z,57.40
2022-11-18T22:13:52.701Z,57.50
2022-11-18T22:16:25.006Z,57.50
2022-11-18T22:18:56.477Z,57.40
2022-11-18T22:21:24.526Z,57.50
2022-11-18T22:23:51.158Z,57.50
2022-11-18T22:29:07.796Z,57.30
2022-11-18T22:31:34.359Z,57.30
2022-11-18T22:34:00.872Z,57.10
2022-11-18T22:36:30.999Z,56.90
2022-11-18T22:38:57.507Z,56.90
2022-11-18T22:41:24.982Z,56.90
2022-11-18T22:44:01.460Z,56.90
2022-11-18T22:46:37.102Z,56.70
2022-11-18T22:49:03.651Z,57.10
2022-11-18T22:51:30.166Z,56.80
2022-11-18T22:54:22.919Z,56.70
2022-11-18T22:56:43.202Z,56.80
2022-11-18T22:59:09.734Z,56.80
2022-11-18T23:01:36.262Z,56.80
2022-11-18T23:04:02.798Z,56.80
2022-11-18T23:06:29.401Z,56.60
2022-11-18T23:08:55.953Z,56.50
2022-11-18T23:11:22.490Z,56.50
2022-11-18T23:13:49.031Z,56.40
2022-11-18T23:16:21.444Z,56.40
2022-11-18T23:18:47.982Z,56.10
2022-11-18T23:21:14.619Z,56.20
2022-11-18T23:23:43.022Z,56.30
2022-11-18T23:26:09.507Z,56.20
2022-11-18T23:28:36.020Z,56.10
2022-11-18T23:31:02.571Z,56.10
2022-11-18T23:33:31.958Z,55.90
2022-11-18T23:35:58.522Z,55.90
2022-11-18T23:38:25.069Z,55.60
2022-11-18T23:40:51.661Z,55.60
2022-11-18T23:43:18.171Z,55.60
2022-11-18T23:45:44.709Z,55.80
2022-11-18T23:48:11.235Z,55.80
2022-11-18T23:50:39.412Z,55.70
2022-11-18T23:53:06.088Z,55.60
2022-11-18T23:55:32.641Z,55.50
2022-11-18T23:57:59.171Z,55.60
